Time;durP1;ratioP1;P1;durP2;ratioP2;P2;SDS_P1;SDS_P2;PMS_P1;PMS_P2;Temp;Humidity;BMP_temperature;BMP_pressure;BME280_temperature;BME280_humidity;BME280_pressure;Samples;Min_cycle;Max_cycle;Signal;HPM_P1;HPM_P2
2021/12/13 00:01:25;;;;;;;160.60;75.40;;;;;;;1.53;63.43;101041.44;4960206;28;99066;-86
2021/12/13 00:04:22;;;;;;;158.07;75.33;;;;;;;1.52;63.42;101026.78;4936506;28;96874;-87
2021/12/13 00:06:51;;;;;;;155.97;76.90;;;;;;;1.52;63.41;101027.63;4942191;28;97222;-87
2021/12/13 00:09:22;;;;;;;160.60;75.50;;;;;;;1.42;63.45;101011.94;4939365;28;102115;-86
2021/12/13 00:11:56;;;;;;;157.47;73.97;;;;;;;1.24;64.45;101000.50;4937721;28;100992;-86
2021/12/13 00:14:33;;;;;;;158.33;74.87;;;;;;;1.38;64.43;101023.13;4936998;28;96722;-87
2021/12/13 00:17:12;;;;;;;167.17;79.90;;;;;;;1.24;64.14;100986.69;4938457;28;96791;-86
2021/12/13 00:19:41;;;;;;;167.20;79.30;;;;;;;1.26;64.09;101001.38;4923152;28;101494;-87
2021/12/13 00:22:19;;;;;;;158.17;75.10;;;;;;;1.29;64.75;101006.59;4950058;28;100303;-86
2021/12/13 00:24:47;;;;;;;167.20;80.63;;;;;;;1.47;64.23;101020.66;4952920;28;97068;-86
2021/12/13 00:27:20;;;;;;;166.77;78.13;;;;;;;1.51;64.32;101020.72;4941920;28;96880;-85
2021/12/13 00:30:10;;;;;;;172.47;79.40;;;;;;;1.33;64.33;100990.28;4945680;28;97436;-86
2021/12/13 00:33:03;;;;;;;159.83;76.47;;;;;;;1.55;64.37;101032.84;4957896;28;101555;-88
2021/12/13 00:35:36;;;;;;;169.73;77.83;;;;;;;1.62;64.86;101031.22;4933312;28;96788;-86
2021/12/13 00:38:04;;;;;;;165.63;76.20;;;;;;;1.48;64.78;101018.06;4948008;28;96713;-86
2021/12/13 00:40:34;;;;;;;159.03;76.87;;;;;;;1.55;65.01;101027.69;4959119;28;98647;-86
2021/12/13 00:43:09;;;;;;;157.00;76.50;;;;;;;1.34;64.70;100996.34;4928508;28;100941;-86
2021/12/13 00:45:39;;;;;;;157.73;74.80;;;;;;;1.51;64.82;101022.44;4942600;28;96842;-87
2021/12/13 00:48:07;;;;;;;155.93;74.37;;;;;;;1.51;65.11;101025.91;4933399;28;97351;-86
2021/12/13 00:50:53;;;;;;;157.83;74.83;;;;;;;1.53;65.67;101031.09;4944754;28;99973;-86
2021/12/13 00:53:21;;;;;;;148.90;70.33;;;;;;;1.57;65.39;101033.75;4968617;28;97934;-86
2021/12/13 00:55:48;;;;;;;146.73;71.77;;;;;;;1.53;65.48;101025.91;4946548;28;96985;-86
2021/12/13 00:58:19;;;;;;;151.30;71.63;;;;;;;1.64;65.78;101039.88;4925536;28;97140;-86
2021/12/13 01:01:01;;;;;;;145.13;71.93;;;;;;;1.52;66.38;101021.59;4934441;28;101906;-86
2021/12/13 01:03:29;;;;;;;145.77;73.35;;;;;;;1.49;66.06;101009.47;4955773;28;97893;-86
2021/12/13 01:06:36;;;;;;;152.40;71.93;;;;;;;1.69;65.87;101034.78;4933236;28;96697;-86
2021/12/13 01:09:39;;;;;;;153.77;72.03;;;;;;;1.68;66.06;101040.78;4954642;28;97070;-87
2021/12/13 01:12:09;;;;;;;155.73;71.23;;;;;;;1.65;66.45;101039.03;4956217;28;101585;-86
2021/12/13 01:14:42;;;;;;;143.63;71.47;;;;;;;1.44;67.17;101012.84;4942148;28;101407;-86
2021/12/13 01:17:23;;;;;;;145.70;71.00;;;;;;;1.58;67.33;101037.22;4958777;28;97130;-86
2021/12/13 01:20:00;;;;;;;145.67;68.83;;;;;;;1.58;67.32;101053.59;4943222;28;97075;-87
2021/12/13 01:22:48;;;;;;;148.63;69.57;;;;;;;1.46;67.79;101030.13;4932622;28;100009;-86
2021/12/13 01:28:26;;;;;;;143.53;68.73;;;;;;;1.56;68.46;101057.88;4916087;28;96736;-86
2021/12/13 01:31:17;;;;;;;148.37;73.23;;;;;;;1.56;68.78;101052.69;4936466;28;97129;-86
2021/12/13 01:33:45;;;;;;;149.23;73.27;;;;;;;1.66;68.81;101048.53;4949602;28;96889;-87
2021/12/13 01:36:23;;;;;;;150.43;73.33;;;;;;;1.61;69.20;101047.59;4941729;28;101487;-86
2021/12/13 01:38:52;;;;;;;149.73;72.67;;;;;;;1.62;68.98;101040.69;4928784;28;96793;-87
2021/12/13 01:41:28;;;;;;;144.57;71.00;;;;;;;1.65;69.21;101049.38;4941700;28;96947;-86
2021/12/13 01:43:58;;;;;;;142.27;70.97;;;;;;;1.65;69.18;101043.34;4929245;28;101980;-87
2021/12/13 01:46:24;;;;;;;148.07;73.10;;;;;;;1.76;68.74;101052.97;4958991;28;99250;-88
2021/12/13 01:48:52;;;;;;;143.97;71.43;;;;;;;1.77;69.09;101049.53;4972057;28;96959;-87
2021/12/13 01:51:23;;;;;;;148.50;73.77;;;;;;;1.79;69.30;101044.38;4936834;28;97103;-87
2021/12/13 01:53:56;;;;;;;143.93;70.63;;;;;;;1.73;69.50;101052.06;4935821;28;101694;-87
2021/12/13 01:56:47;;;;;;;140.97;68.93;;;;;;;1.74;69.98;101046.03;4955437;28;98361;-86
2021/12/13 01:59:49;;;;;;;143.73;73.00;;;;;;;1.73;70.35;101047.75;4944186;28;96703;-87
2021/12/13 02:02:33;;;;;;;135.00;68.90;;;;;;;1.67;69.54;101019.22;4958041;28;96752;-87
2021/12/13 02:05:38;;;;;;;133.57;67.10;;;;;;;1.74;70.14;101044.31;4921556;28;101336;-87
2021/12/13 02:08:09;;;;;;;131.97;64.63;;;;;;;1.72;70.28;101052.94;4945201;28;100076;-87
2021/12/13 02:10:45;;;;;;;129.30;67.45;;;;;;;1.76;70.38;101050.38;4937878;28;96727;-87
2021/12/13 02:13:21;;;;;;;134.40;66.33;;;;;;;1.71;70.48;101046.88;4954784;28;97111;-87
2021/12/13 02:18:36;;;;;;;132.93;65.80;;;;;;;1.76;70.71;101040.03;4976130;28;100234;-87
2021/12/13 02:21:22;;;;;;;131.77;64.40;;;;;;;1.80;70.80;101044.44;4941880;28;96785;-88
2021/12/13 02:23:50;;;;;;;129.87;64.20;;;;;;;1.81;70.87;101046.16;4935722;28;96998;-87
2021/12/13 02:26:16;;;;;;;130.40;63.10;;;;;;;1.81;70.67;101042.69;4954992;28;101135;-87
2021/12/13 02:28:44;;;;;;;133.67;66.80;;;;;;;1.81;70.62;101029.75;4949267;28;98113;-88
2021/12/13 02:31:14;;;;;;;130.70;64.07;;;;;;;1.72;70.66;101019.28;4943416;28;96645;-87
2021/12/13 02:33:43;;;;;;;124.73;63.30;;;;;;;1.72;71.36;101047.75;4942184;28;96867;-87
2021/12/13 02:36:16;;;;;;;124.60;62.60;;;;;;;1.71;71.62;101046.88;4943642;28;101358;-87
2021/12/13 02:38:43;;;;;;;126.83;63.60;;;;;;;1.70;71.67;101045.13;4941540;28;100816;-89
2021/12/13 02:41:09;;;;;;;131.33;64.30;;;;;;;1.63;71.61;101035.56;4935977;28;97214;-88
2021/12/13 02:43:41;;;;;;;132.33;64.73;;;;;;;1.57;72.38;101032.84;4955205;28;97086;-87
2021/12/13 02:46:07;;;;;;;130.53;61.57;;;;;;;1.73;71.81;101054.66;4936906;28;101232;-87
2021/12/13 02:48:38;;;;;;;133.37;64.83;;;;;;;1.74;72.07;101064.16;4941326;28;101178;-87
2021/12/13 02:51:18;;;;;;;126.03;63.87;;;;;;;1.75;71.90;101061.59;4944093;28;96622;-87
2021/12/13 02:53:48;;;;;;;120.63;60.53;;;;;;;1.70;71.77;101052.91;4958479;28;97262;-89
2021/12/13 02:56:18;;;;;;;121.07;58.77;;;;;;;1.42;72.71;101010.22;4945002;28;98154;-87
2021/12/13 02:58:45;;;;;;;131.17;63.23;;;;;;;1.80;72.14;101036.66;4957703;28;99540;-88
2021/12/13 03:01:14;;;;;;;128.97;62.60;;;;;;;1.69;72.07;101012.34;4952645;28;96810;-88
2021/12/13 03:03:44;;;;;;;126.10;61.63;;;;;;;1.62;72.20;101013.09;4931859;28;97255;-87
2021/12/13 03:06:12;;;;;;;127.77;62.13;;;;;;;1.81;72.23;101040.13;4932498;28;101458;-87
2021/12/13 03:08:49;;;;;;;127.93;63.87;;;;;;;1.85;72.62;101041.88;4957421;28;101252;-87
2021/12/13 03:11:23;;;;;;;117.23;61.53;;;;;;;1.85;72.52;101044.47;4956347;28;97088;-87
2021/12/13 03:13:56;;;;;;;121.57;61.57;;;;;;;1.82;72.75;101047.03;4949994;28;96720;-87
2021/12/13 03:16:27;;;;;;;122.50;60.10;;;;;;;1.71;73.06;101028.75;4960617;28;101277;-87
2021/12/13 03:19:18;;;;;;;117.77;59.53;;;;;;;1.66;72.78;101025.25;4961116;28;101502;-86
2021/12/13 03:22:12;;;;;;;118.72;59.47;;;;;;;1.74;73.45;101053.81;4952593;28;96859;-88
2021/12/13 03:25:04;;;;;;;111.83;56.90;;;;;;;1.75;73.05;101050.38;4963907;28;96814;-87
2021/12/13 03:27:46;;;;;;;121.95;56.97;;;;;;;1.94;72.65;101056.66;4975509;28;101594;-88
2021/12/13 03:30:13;;;;;;;;;;;;;;;1.98;72.81;101053.28;4947745;28;101432;-87
2021/12/13 03:32:49;;;;;;;119.63;57.30;;;;;;;1.95;72.44;101058.38;4971410;28;97042;-86
2021/12/13 03:35:19;;;;;;;119.30;57.83;;;;;;;1.95;72.29;101038.56;4936420;28;96649;-87
2021/12/13 03:37:45;;;;;;;118.37;56.93;;;;;;;1.96;72.78;101054.97;4930859;28;100966;-88
2021/12/13 03:40:18;;;;;;;116.80;55.83;;;;;;;2.01;72.91;101055.91;4960321;28;100738;-87
2021/12/13 03:42:50;;;;;;;116.37;58.30;;;;;;;1.85;73.19;101052.22;4937878;28;96661;-87
2021/12/13 03:45:21;;;;;;;105.55;55.70;;;;;;;1.95;73.08;101064.47;4954177;28;96732;-88
2021/12/13 03:47:50;;;;;;;111.27;56.40;;;;;;;1.82;73.49;101034.06;4947123;28;101711;-88
2021/12/13 03:50:47;;;;;;;114.67;56.50;;;;;;;1.98;73.31;101059.31;4930845;28;101860;-87
2021/12/13 03:53:16;;;;;;;107.00;55.07;;;;;;;1.96;72.83;101048.06;4924798;28;97047;-87
2021/12/13 03:55:45;;;;;;;102.47;55.13;;;;;;;1.98;72.99;101051.56;4947341;28;97155;-87
2021/12/13 03:58:13;;;;;;;108.00;53.23;;;;;;;2.17;72.81;101059.53;4948488;28;98752;-87
2021/12/13 04:00:44;;;;;;;108.30;53.00;;;;;;;2.12;72.37;101030.13;4942303;28;98458;-87
2021/12/13 04:03:13;;;;;;;97.07;51.23;;;;;;;2.03;73.35;101049.88;4926596;28;96798;-87
2021/12/13 04:05:40;;;;;;;104.20;50.90;;;;;;;2.11;73.51;101059.47;4959497;28;97195;-87
2021/12/13 04:08:09;;;;;;;106.17;55.83;;;;;;;1.97;73.13;101029.09;4924152;28;101191;-87
2021/12/13 04:10:41;;;;;;;102.63;51.30;;;;;;;2.18;73.10;101056.09;4932185;28;99793;-87
2021/12/13 04:13:11;;;;;;;;;;;;;;;2.15;72.91;101059.53;4931334;28;96646;-88
2021/12/13 04:16:10;;;;;;;97.63;49.03;;;;;;;1.94;73.24;101007.47;4954070;28;96940;-87
2021/12/13 04:21:15;;;;;;;91.93;48.03;;;;;;;2.09;73.39;101049.06;4968170;28;101552;-88
2021/12/13 04:23:41;;;;;;;95.63;47.40;;;;;;;2.06;73.55;101049.03;4949601;28;96745;-87
2021/12/13 04:26:10;;;;;;;97.63;51.33;;;;;;;2.09;74.00;101054.25;4943392;28;97041;-86
2021/12/13 04:28:46;;;;;;;94.53;48.07;;;;;;;2.00;73.80;101048.97;4953249;28;97554;-88
2021/12/13 04:31:17;;;;;;;92.87;46.10;;;;;;;2.09;74.13;101063.75;4938817;28;101653;-87
2021/12/13 04:33:56;;;;;;;92.27;47.37;;;;;;;2.17;73.91;101072.50;4943797;28;97154;-87
2021/12/13 04:36:28;;;;;;;89.47;49.27;;;;;;;2.01;73.59;101048.13;4947005;28;97000;-86
2021/12/13 04:39:13;;;;;;;;;;;;;;;2.07;74.27;101066.34;4959808;28;97599;-87
2021/12/13 04:41:53;;;;;;;97.83;49.90;;;;;;;2.31;73.73;101067.50;4969708;28;101627;-87
2021/12/13 04:44:34;;;;;;;96.33;47.83;;;;;;;2.32;73.51;101067.50;4927948;28;96959;-87
2021/12/13 04:47:16;;;;;;;92.33;47.20;;;;;;;2.32;73.50;101069.22;4954322;28;97039;-87
2021/12/13 04:49:46;;;;;;;95.17;47.77;;;;;;;2.34;73.21;101068.38;4959477;28;98482;-86
2021/12/13 04:52:15;;;;;;;86.47;47.23;;;;;;;2.19;73.68;101050.06;4942001;28;101242;-88
2021/12/13 04:54:45;;;;;;;97.33;46.37;;;;;;;2.22;73.47;101061.34;4943378;28;96654;-87
2021/12/13 04:57:11;;;;;;;92.07;47.63;;;;;;;2.21;73.40;101051.84;4955933;28;97183;-86
2021/12/13 04:59:37;;;;;;;86.37;45.23;;;;;;;2.28;73.55;101052.78;4950585;28;100670;-87
2021/12/13 05:02:07;;;;;;;90.90;45.30;;;;;;;2.38;73.32;101043.38;4938910;28;101535;-87
2021/12/13 05:04:33;;;;;;;86.43;44.87;;;;;;;2.33;73.63;101055.41;4927008;28;96640;-88
2021/12/13 05:07:01;;;;;;;89.47;44.43;;;;;;;2.33;73.83;101058.88;4926899;28;96843;-87
2021/12/13 05:09:28;;;;;;;86.47;44.73;;;;;;;2.30;73.85;101057.97;4953282;28;96868;-88
2021/12/13 05:12:09;;;;;;;76.97;41.93;;;;;;;2.35;74.05;101069.25;4923901;28;101805;-87
2021/12/13 05:14:50;;;;;;;82.47;44.15;;;;;;;2.40;73.92;101057.22;4939673;28;96741;-86
2021/12/13 05:17:27;;;;;;;83.03;44.50;;;;;;;2.42;74.02;101069.34;4944991;28;96904;-87
2021/12/13 05:20:20;;;;;;;81.47;42.43;;;;;;;2.52;73.58;101074.63;4943159;28;101528;-86
2021/12/13 05:22:55;;;;;;;82.27;42.60;;;;;;;2.38;74.40;101082.25;4961204;28;100111;-86
2021/12/13 05:25:36;;;;;;;78.23;42.33;;;;;;;2.38;74.51;101071.88;4935243;28;96997;-87
2021/12/13 05:28:17;;;;;;;82.67;41.50;;;;;;;2.40;74.11;101072.78;4969750;28;96823;-87
2021/12/13 05:31:06;;;;;;;74.78;40.70;;;;;;;2.36;74.70;101083.97;4949287;28;101371;-86
2021/12/13 05:33:34;;;;;;;80.50;42.23;;;;;;;2.39;74.38;101084.00;4943186;28;98379;-85
2021/12/13 05:36:05;;;;;;;87.70;40.80;;;;;;;2.28;74.67;101063.13;4956775;28;96965;-87
2021/12/13 05:38:42;;;;;;;77.37;39.50;;;;;;;2.42;74.61;101082.31;4932487;28;96831;-87
2021/12/13 05:41:15;;;;;;;76.27;40.47;;;;;;;2.36;74.63;101071.00;4936847;28;101117;-86
2021/12/13 05:44:04;;;;;;;83.27;42.27;;;;;;;2.50;74.27;101074.59;4943070;28;101763;-86
2021/12/13 05:46:37;;;;;;;75.23;40.17;;;;;;;2.48;74.47;101072.00;4950529;28;97207;-85
2021/12/13 05:49:07;;;;;;;80.07;41.33;;;;;;;2.41;74.24;101058.94;4928298;28;97272;-86
2021/12/13 05:51:44;;;;;;;79.63;40.70;;;;;;;2.49;74.27;101059.91;4938687;28;100894;-86
2021/12/13 05:54:17;;;;;;;82.93;41.10;;;;;;;2.43;74.24;101054.66;4932397;28;101922;-86
2021/12/13 05:56:48;;;;;;;77.77;38.87;;;;;;;2.58;74.38;101078.16;4943215;28;96930;-87
2021/12/13 05:59:28;;;;;;;83.10;41.83;;;;;;;2.47;74.26;101078.06;4969933;28;97265;-86
2021/12/13 06:02:06;;;;;;;76.40;40.07;;;;;;;2.29;74.74;101053.63;4937986;28;101579;-86
2021/12/13 06:04:40;;;;;;;85.70;42.73;;;;;;;2.50;74.48;101087.56;4965253;28;98477;-86
2021/12/13 06:07:14;;;;;;;80.13;40.37;;;;;;;2.55;74.46;101092.81;4928678;28;96934;-85
2021/12/13 06:09:40;;;;;;;79.73;38.97;;;;;;;2.58;74.36;101095.44;4957601;28;96925;-85
2021/12/13 06:12:09;;;;;;;87.40;43.17;;;;;;;2.46;74.95;101088.38;4974501;28;98189;-85
2021/12/13 06:14:35;;;;;;;76.13;40.80;;;;;;;2.53;75.05;101092.81;4930863;28;101011;-85
2021/12/13 06:17:15;;;;;;;79.77;39.43;;;;;;;2.56;74.72;101100.59;4941099;28;97213;-83
2021/12/13 06:19:48;;;;;;;84.93;41.30;;;;;;;2.56;74.48;101091.94;4951599;28;97509;-84
2021/12/13 06:22:18;;;;;;;83.20;40.73;;;;;;;2.55;74.27;101092.81;4932584;28;101822;-83
2021/12/13 06:24:55;;;;;;;87.17;42.00;;;;;;;2.58;74.58;101101.47;4955977;28;101591;-81
2021/12/13 06:27:23;;;;;;;85.30;42.77;;;;;;;2.60;74.54;101096.31;4953452;28;96766;-81
2021/12/13 06:30:03;;;;;;;91.67;43.30;;;;;;;2.63;74.64;101099.81;4943193;28;97348;-82
2021/12/13 06:32:43;;;;;;;92.10;42.47;;;;;;;2.67;74.39;101104.16;4943642;28;101242;-82
2021/12/13 06:35:29;;;;;;;84.20;42.43;;;;;;;2.72;74.32;101110.28;4952348;28;101597;-80
2021/12/13 06:37:54;;;;;;;87.23;43.07;;;;;;;2.73;74.73;101116.31;4937395;28;96779;-84
2021/12/13 06:40:27;;;;;;;90.87;44.23;;;;;;;2.67;74.82;101111.06;4943463;28;100262;-83
2021/12/13 06:42:59;;;;;;;90.93;43.13;;;;;;;2.68;75.10;101112.84;4927346;28;100983;-84
2021/12/13 06:45:34;;;;;;;92.03;43.33;;;;;;;2.72;75.19;101120.66;4959413;28;101988;-84
2021/12/13 06:48:04;;;;;;;85.60;42.00;;;;;;;2.73;75.13;101126.69;4944414;28;97278;-83
2021/12/13 06:50:33;;;;;;;87.63;43.53;;;;;;;2.60;74.81;101099.78;4943290;28;96739;-83
2021/12/13 06:53:17;;;;;;;85.00;43.87;;;;;;;2.70;74.75;101124.94;4952426;28;101553;-86
2021/12/13 06:55:45;;;;;;;83.83;42.43;;;;;;;2.67;74.99;101129.22;4960756;28;97898;-81
2021/12/13 06:58:15;;;;;;;91.87;44.03;;;;;;;2.70;74.96;101124.06;4959289;28;96969;-82
2021/12/13 07:00:47;;;;;;;95.43;45.30;;;;;;;2.67;75.23;101122.31;4971819;28;97171;-81
2021/12/13 07:03:22;;;;;;;98.25;45.38;;;;;;;2.76;75.10;101133.63;4923798;28;99783;-81
2021/12/13 07:05:56;;;;;;;90.10;43.03;;;;;;;2.78;75.14;101144.91;4923473;28;101125;-82
2021/12/13 07:08:28;;;;;;;89.20;43.23;;;;;;;2.77;75.09;101136.25;4941731;28;97123;-82
2021/12/13 07:10:57;;;;;;;93.47;42.30;;;;;;;2.80;75.35;101141.47;4926745;28;98282;-83
2021/12/13 07:13:34;;;;;;;105.33;45.63;;;;;;;2.81;75.17;101140.63;4952183;28;101438;-82
2021/12/13 07:16:26;;;;;;;95.83;43.53;;;;;;;2.75;75.36;101140.56;4977660;28;97465;-81
2021/12/13 07:19:08;;;;;;;95.63;44.67;;;;;;;2.83;75.24;101145.84;4948882;28;97088;-82
2021/12/13 07:21:48;;;;;;;103.30;45.15;;;;;;;2.86;74.98;101144.13;4937746;28;97164;-81
2021/12/13 07:24:25;;;;;;;85.70;40.73;;;;;;;2.93;75.28;101156.31;4925777;28;101479;-81
2021/12/13 07:26:58;;;;;;;96.77;42.67;;;;;;;2.91;75.40;101160.63;4926266;28;101154;-82
2021/12/13 07:29:41;;;;;;;87.03;43.17;;;;;;;2.92;75.47;101158.91;4926518;28;97049;-82
2021/12/13 07:32:09;;;;;;;96.70;42.27;;;;;;;2.99;75.77;101167.59;4958429;28;97038;-82
2021/12/13 07:34:57;;;;;;;102.97;42.97;;;;;;;2.97;75.20;101165.00;4958451;28;101546;-82
2021/12/13 07:37:39;;;;;;;85.70;40.63;;;;;;;2.97;75.21;101152.03;4946209;28;98515;-82
2021/12/13 07:40:27;;;;;;;85.03;40.63;;;;;;;3.09;74.90;101172.91;4939646;28;97130;-84
2021/12/13 07:43:10;;;;;;;91.83;41.50;;;;;;;3.10;75.09;101169.44;4971125;28;97158;-81
2021/12/13 07:45:52;;;;;;;89.13;42.07;;;;;;;3.16;75.32;101174.69;4944219;28;101204;-82
2021/12/13 07:48:22;;;;;;;82.63;39.80;;;;;;;3.14;75.25;101173.84;4942195;28;98070;-81
2021/12/13 07:51:02;;;;;;;97.03;42.83;;;;;;;3.18;75.18;101178.19;4942436;28;96692;-82
2021/12/13 07:53:38;;;;;;;90.43;40.77;;;;;;;3.19;74.88;101176.44;4958695;28;96716;-82
2021/12/13 07:56:05;;;;;;;85.03;41.53;;;;;;;3.23;75.11;101175.66;4951983;28;101656;-82
2021/12/13 07:58:35;;;;;;;79.43;40.30;;;;;;;3.17;75.28;101166.06;4940538;28;101298;-82
2021/12/13 08:01:13;;;;;;;84.87;40.10;;;;;;;3.30;75.29;101185.22;4958303;28;97142;-82
2021/12/13 08:03:44;;;;;;;75.90;35.70;;;;;;;3.18;75.56;101172.13;4926480;28;97267;-81
2021/12/13 08:06:10;;;;;;;74.67;35.83;;;;;;;3.28;75.41;101171.34;4957609;28;98142;-82
2021/12/13 08:08:46;;;;;;;64.97;33.40;;;;;;;3.40;75.31;101191.34;4955847;28;100102;-81
2021/12/13 08:11:12;;;;;;;70.27;32.73;;;;;;;3.42;74.95;101183.59;4941092;28;97094;-82
2021/12/13 08:13:38;;;;;;;68.20;32.03;;;;;;;3.47;75.25;101181.91;4926293;28;97429;-81
2021/12/13 08:16:06;;;;;;;62.83;29.90;;;;;;;3.48;75.19;101188.84;4938612;28;101628;-82
2021/12/13 08:18:42;;;;;;;62.90;30.37;;;;;;;3.50;75.38;101194.91;4950384;28;101066;-82
2021/12/13 08:21:12;;;;;;;58.80;31.83;;;;;;;3.51;75.48;101183.66;4938359;28;97382;-81
2021/12/13 08:23:45;;;;;;;62.83;28.90;;;;;;;3.47;75.46;101177.59;4949677;28;96952;-82
2021/12/13 08:26:15;;;;;;;58.43;27.80;;;;;;;3.50;75.24;101181.94;4959695;28;100925;-82
2021/12/13 08:28:44;;;;;;;52.53;26.10;;;;;;;3.57;75.52;101194.09;4952523;28;100989;-81
2021/12/13 08:31:20;;;;;;;51.03;27.23;;;;;;;3.62;75.44;101201.06;4938554;28;98061;-81
2021/12/13 08:33:50;;;;;;;51.97;27.03;;;;;;;3.59;75.20;101198.47;4931307;28;97271;-83
2021/12/13 08:36:38;;;;;;;50.63;26.70;;;;;;;3.68;75.29;101204.59;4922071;28;101679;-82
2021/12/13 08:39:17;;;;;;;59.50;29.73;;;;;;;3.66;75.45;101201.09;4948778;28;103228;-82
2021/12/13 08:41:59;;;;;;;57.53;29.53;;;;;;;3.61;75.45;101194.16;4950053;28;96700;-81
2021/12/13 08:44:38;;;;;;;63.05;29.70;;;;;;;3.55;75.75;101185.41;4938835;28;97156;-81
2021/12/13 08:47:08;;;;;;;60.60;28.80;;;;;;;3.69;75.48;101209.78;4956976;28;97639;-83
2021/12/13 08:49:42;;;;;;;62.30;29.60;;;;;;;3.65;75.78;101205.44;4940912;28;99286;-82
2021/12/13 08:52:14;;;;;;;52.90;27.60;;;;;;;3.55;75.63;101194.09;4928116;28;97248;-82
2021/12/13 08:54:58;;;;;;;58.38;28.02;;;;;;;3.76;75.94;101213.31;4941495;28;97194;-81
2021/12/13 08:57:26;;;;;;;54.27;27.67;;;;;;;3.80;75.80;101220.25;4969341;28;101648;-84
2021/12/13 08:59:53;;;;;;;51.67;27.67;;;;;;;3.84;75.63;101219.44;4945700;28;101663;-83
2021/12/13 09:02:20;;;;;;;57.67;28.03;;;;;;;3.82;75.28;101214.22;4940961;28;97123;-82
2021/12/13 09:05:02;;;;;;;53.33;26.87;;;;;;;3.89;75.51;101222.94;4938470;28;98076;-82
2021/12/13 09:07:28;;;;;;;50.97;25.45;;;;;;;3.88;75.93;101233.31;4937724;28;101084;-82
2021/12/13 09:09:54;;;;;;;54.00;26.70;;;;;;;3.89;75.66;101227.25;4924941;28;101650;-82
2021/12/13 09:12:42;;;;;;;53.17;25.97;;;;;;;3.84;75.82;101227.25;4921973;28;97103;-83
2021/12/13 09:15:18;;;;;;;49.87;25.33;;;;;;;3.95;75.99;101228.16;4941412;28;96920;-82
2021/12/13 09:17:44;;;;;;;40.60;22.77;;;;;;;4.00;75.87;101229.06;4953634;28;98223;-84
2021/12/13 09:20:13;;;;;;;44.97;23.50;;;;;;;4.06;75.51;101236.06;4927754;28;100775;-83
2021/12/13 09:22:45;;;;;;;45.37;24.13;;;;;;;4.08;75.76;101229.16;4937959;28;96975;-88
2021/12/13 09:25:14;;;;;;;43.27;22.53;;;;;;;4.08;75.49;101223.94;4947733;28;96767;-83
2021/12/13 09:28:01;;;;;;;45.10;21.57;;;;;;;4.09;75.61;101220.47;4933917;28;101165;-82
2021/12/13 09:30:35;;;;;;;44.03;21.67;;;;;;;4.11;75.67;101223.97;4924823;28;101587;-83
2021/12/13 09:33:15;;;;;;;43.03;21.00;;;;;;;4.08;75.89;101229.16;4960538;28;96794;-83
2021/12/13 09:35:46;;;;;;;39.17;21.00;;;;;;;4.07;75.59;101229.97;4969319;28;97101;-82
2021/12/13 09:38:17;;;;;;;40.63;20.57;;;;;;;4.07;75.68;101224.78;4936303;28;101617;-83
2021/12/13 09:40:46;;;;;;;38.38;19.42;;;;;;;4.05;75.71;101218.72;4956507;28;98129;-83
2021/12/13 09:43:11;;;;;;;39.03;20.23;;;;;;;3.99;75.83;101210.91;4933930;28;98060;-84
2021/12/13 09:45:42;;;;;;;43.40;21.33;;;;;;;4.13;75.77;101229.16;4941610;28;97580;-83
2021/12/13 09:48:39;;;;;;;40.70;20.23;;;;;;;4.07;76.18;101230.88;4943307;28;98427;-82
2021/12/13 09:51:21;;;;;;;42.90;20.47;;;;;;;4.12;75.31;101230.03;4921086;28;101782;-83
2021/12/13 09:53:48;;;;;;;;;;;;;;;4.13;75.72;101230.06;4933236;28;97023;-87
2021/12/13 09:56:17;;;;;;;47.13;21.77;;;;;;;4.06;75.72;101216.13;4948078;28;97667;-87
2021/12/13 09:58:56;;;;;;;39.60;19.53;;;;;;;4.08;75.96;101222.22;4932370;28;101450;-87
2021/12/13 10:01:27;;;;;;;37.57;20.60;;;;;;;4.23;75.68;101238.78;4961007;28;98415;-87
2021/12/13 10:04:17;;;;;;;37.97;19.63;;;;;;;4.22;76.03;101235.31;4933792;28;97316;-87
2021/12/13 10:06:54;;;;;;;36.20;19.63;;;;;;;4.23;75.96;101243.97;4966141;28;97077;-86
2021/12/13 10:09:35;;;;;;;41.97;21.20;;;;;;;4.25;76.08;101227.53;4933303;28;99962;-87
2021/12/13 10:12:15;;;;;;;34.80;18.20;;;;;;;4.31;75.78;101227.56;4942313;28;101716;-90
2021/12/13 10:14:46;;;;;;;35.97;19.50;;;;;;;4.34;75.75;101231.06;4954178;28;96801;-88
2021/12/13 10:17:15;;;;;;;39.55;20.75;;;;;;;4.42;75.96;101231.94;4940773;28;96877;-87
2021/12/13 10:19:46;;;;;;;39.30;19.43;;;;;;;4.43;76.03;101234.56;4945131;28;98148;-88
2021/12/13 10:22:15;;;;;;;36.43;17.97;;;;;;;4.50;75.90;101235.47;4950922;28;101376;-87
2021/12/13 10:24:50;;;;;;;35.13;18.50;;;;;;;4.51;75.69;101238.09;4946911;28;97135;-87
2021/12/13 10:27:17;;;;;;;36.53;19.07;;;;;;;4.53;75.81;101232.88;4951746;28;97000;-87
2021/12/13 10:29:47;;;;;;;39.33;20.20;;;;;;;4.53;76.18;101227.66;4922669;28;101579;-87
2021/12/13 10:32:18;;;;;;;41.80;19.97;;;;;;;4.53;75.73;101228.53;4949975;28;98135;-87
2021/12/13 10:34:47;;;;;;;35.07;18.83;;;;;;;4.56;76.06;101232.88;4948021;28;97732;-87
2021/12/13 10:37:21;;;;;;;40.30;19.63;;;;;;;4.53;75.87;101225.94;4948514;28;96731;-85
2021/12/13 10:39:53;;;;;;;43.80;21.73;;;;;;;4.62;75.99;101232.91;4936223;28;101686;-85
2021/12/13 10:42:47;;;;;;;39.63;19.23;;;;;;;4.59;76.29;101221.63;4940247;28;101596;-87
2021/12/13 10:45:17;;;;;;;33.10;17.30;;;;;;;4.55;75.89;101212.94;4938860;28;97909;-86
2021/12/13 10:47:47;;;;;;;37.97;18.67;;;;;;;4.61;76.07;101220.78;4950782;28;96684;-83
2021/12/13 10:50:19;;;;;;;37.97;19.70;;;;;;;4.67;75.89;101225.16;4925529;28;101294;-82
2021/12/13 10:52:48;;;;;;;37.70;18.73;;;;;;;4.58;75.77;101207.75;4952288;28;97880;-83
2021/12/13 10:55:33;;;;;;;38.87;19.27;;;;;;;4.41;76.17;101179.06;4955203;28;97286;-82
2021/12/13 10:57:59;;;;;;;33.33;17.50;;;;;;;4.67;75.84;101218.22;4948273;28;97297;-83
2021/12/13 11:00:32;;;;;;;39.47;18.83;;;;;;;4.59;75.67;101222.50;4945507;28;97363;-83
2021/12/13 11:03:07;;;;;;;40.97;18.47;;;;;;;4.69;76.13;101229.50;4938327;28;101660;-85
2021/12/13 11:05:34;;;;;;;34.83;18.20;;;;;;;4.67;76.43;101223.41;4965894;28;96670;-81
2021/12/13 11:08:00;;;;;;;33.60;17.17;;;;;;;4.71;76.34;101232.09;4927682;28;97365;-82
2021/12/13 11:10:36;;;;;;;33.37;17.83;;;;;;;4.77;75.81;101232.16;4938525;28;97343;-85
2021/12/13 11:13:02;;;;;;;33.70;17.50;;;;;;;4.73;76.13;101225.16;4963263;28;97749;-89
2021/12/13 11:15:33;;;;;;;39.20;19.60;;;;;;;4.74;75.89;101216.50;4938809;28;98295;-82
2021/12/13 11:18:01;;;;;;;33.50;18.20;;;;;;;4.73;75.86;101217.38;4946655;28;96817;-83
2021/12/13 11:20:36;;;;;;;31.83;18.20;;;;;;;4.76;75.77;101219.97;4929734;28;101565;-82
2021/12/13 11:23:04;;;;;;;31.67;16.40;;;;;;;4.68;75.58;101200.88;4950957;28;97947;-86
2021/12/13 11:25:37;;;;;;;36.60;17.87;;;;;;;4.81;75.81;101220.88;4956269;28;96893;-83
2021/12/13 11:28:04;;;;;;;35.53;18.80;;;;;;;4.84;76.12;101233.88;4941497;28;97166;-84
2021/12/13 11:30:32;;;;;;;38.00;18.70;;;;;;;4.78;75.96;101220.00;4958366;28;98041;-81
2021/12/13 11:32:58;;;;;;;39.43;18.30;;;;;;;4.86;75.95;101236.47;4925619;28;100572;-86
2021/12/13 11:35:51;;;;;;;35.77;17.37;;;;;;;4.85;76.08;101237.34;4971808;28;96791;-85
2021/12/13 11:38:42;;;;;;;40.17;18.23;;;;;;;4.83;76.04;101241.69;4958125;28;97454;-85
2021/12/13 11:41:11;;;;;;;35.42;18.00;;;;;;;4.83;76.13;101233.88;4926472;28;101569;-85
2021/12/13 11:43:55;;;;;;;37.50;18.80;;;;;;;4.82;76.18;101225.19;4971473;28;97855;-85
2021/12/13 11:46:53;;;;;;;40.73;20.47;;;;;;;4.83;76.36;101233.88;4939086;28;96913;-85
2021/12/13 11:49:52;;;;;;;37.80;18.17;;;;;;;4.85;76.08;101227.81;4934971;28;97119;-85
2021/12/13 11:52:36;;;;;;;39.03;20.40;;;;;;;4.84;76.18;101230.44;4938237;28;97492;-86
2021/12/13 11:55:44;;;;;;;44.73;21.70;;;;;;;4.83;76.22;101228.66;4954656;28;98401;-85